Bol'Soj Santar, Russia
Current Conditions -  °F | °C
As of 2:30 AM on Tuesday 27 Jan 2015 (Local Time) from UHHH Reporting Station
Clear Clear  
Wind Chill: -8°   Ceiling: Unl
Heat Index:   Visibility: 6mi
Dew Point:   Wind: 13mph
Humidity: 85%   Direction: 250°WSW
Pressure: 29.91"   Gusts: NA
Location:  54.83°N, 137.53°E
Report Text: UHHH 261630Z 25006MPS CAVOK M13/M15 Q1013 NOSIG RMK QFE753/100523490550
Loading
Personal Weather Stations






























Interactive Weather Map New forecast layout! Learn more

10-Day Weather Forecast

Advertisements
Track Severe Weather on mobile